createdAt,value
2019-04-04T00:02:40.073Z,6.04
2019-04-04T00:07:39.825Z,6.00
2019-04-04T00:12:39.791Z,5.93
2019-04-04T00:17:39.806Z,5.93
2019-04-04T00:22:39.776Z,5.97
2019-04-04T00:27:39.776Z,5.93
2019-04-04T00:32:38.898Z,5.92
2019-04-04T00:37:37.836Z,5.83
2019-04-04T00:42:37.804Z,5.78
2019-04-04T00:47:37.816Z,5.76
2019-04-04T00:52:39.006Z,5.77
2019-04-04T00:57:38.015Z,5.77
2019-04-04T01:02:36.865Z,5.73
2019-04-04T01:07:36.448Z,5.70
2019-04-04T01:12:35.765Z,5.65
2019-04-04T01:17:35.825Z,5.62
2019-04-04T01:22:34.798Z,5.57
2019-04-04T01:27:36.676Z,5.47
2019-04-04T01:32:34.799Z,5.38
2019-04-04T01:37:34.832Z,5.30
2019-04-04T01:42:37.916Z,5.21
2019-04-04T01:52:34.845Z,5.06
2019-04-04T01:57:34.793Z,4.99
2019-04-04T02:02:34.833Z,4.96
2019-04-04T02:07:34.824Z,4.98
2019-04-04T02:12:38.489Z,4.93
2019-04-04T02:17:35.794Z,4.90
2019-04-04T02:22:35.811Z,4.93
2019-04-04T02:27:37.680Z,4.90
2019-04-04T02:32:34.808Z,4.84
2019-04-04T02:37:34.859Z,4.81
2019-04-04T02:42:33.855Z,4.73
2019-04-04T02:47:33.938Z,4.68
2019-04-04T02:52:32.880Z,4.66
2019-04-04T02:57:31.795Z,4.53
2019-04-04T03:02:31.819Z,4.49
2019-04-04T03:07:31.790Z,4.52
2019-04-04T03:12:31.074Z,4.51
2019-04-04T03:17:32.688Z,4.53
2019-04-04T03:22:30.875Z,4.57
2019-04-04T03:27:30.023Z,4.59
2019-04-04T03:32:29.861Z,4.62
2019-04-04T03:37:29.888Z,4.65
2019-04-04T03:42:30.901Z,4.57
2019-04-04T03:47:31.852Z,4.47
2019-04-04T03:52:30.995Z,4.49
2019-04-04T03:57:31.949Z,4.50
2019-04-04T04:02:31.856Z,4.51
2019-04-04T04:07:30.889Z,4.56
2019-04-04T04:12:30.910Z,4.47
2019-04-04T04:17:29.989Z,4.49
2019-04-04T04:22:29.872Z,4.52
2019-04-04T04:27:29.855Z,4.55
2019-04-04T04:32:29.856Z,4.62
2019-04-04T04:37:29.867Z,4.59
2019-04-04T04:42:28.867Z,4.62
2019-04-04T04:47:28.872Z,4.62
2019-04-04T04:52:28.895Z,4.63
2019-04-04T04:57:30.162Z,4.64
2019-04-04T05:02:27.877Z,4.67
2019-04-04T05:07:27.840Z,4.64
2019-04-04T05:12:28.162Z,4.68
2019-04-04T05:17:28.012Z,4.66
2019-04-04T05:22:26.995Z,4.70
2019-04-04T05:32:25.130Z,4.79
2019-04-04T05:37:27.233Z,4.78
2019-04-04T05:42:24.884Z,4.81
2019-04-04T05:47:24.912Z,4.86
2019-04-04T05:52:25.051Z,4.84
2019-04-04T05:57:24.918Z,4.90
2019-04-04T06:02:24.074Z,4.98
2019-04-04T06:07:22.975Z,5.04
2019-04-04T06:12:24.864Z,5.09
2019-04-04T06:17:22.154Z,5.12
2019-04-04T06:22:21.973Z,5.12
2019-04-04T06:27:22.089Z,5.16
2019-04-04T06:32:21.949Z,5.20
2019-04-04T06:37:20.947Z,5.26
2019-04-04T06:42:20.905Z,5.33
2019-04-04T06:47:19.936Z,5.41
2019-04-04T06:52:19.945Z,5.50
2019-04-04T06:57:18.958Z,5.57
2019-04-04T07:02:18.970Z,5.63
2019-04-04T07:07:18.989Z,5.69
2019-04-04T07:12:22.506Z,5.74
2019-04-04T07:17:17.057Z,5.73
2019-04-04T07:22:16.160Z,5.80
2019-04-04T07:27:16.321Z,5.83
2019-04-04T07:32:15.516Z,5.87
2019-04-04T07:37:15.934Z,5.90
2019-04-04T07:42:15.865Z,5.93
2019-04-04T07:47:16.669Z,5.91
2019-04-04T07:52:17.243Z,6.02
2019-04-04T07:57:14.949Z,6.05
2019-04-04T08:02:14.208Z,6.10
2019-04-04T08:07:14.582Z,6.24
2019-04-04T08:12:14.594Z,6.34
2019-04-04T08:17:14.240Z,6.49
2019-04-04T08:22:14.639Z,6.63
2019-04-04T08:27:14.620Z,6.72
2019-04-04T08:32:14.169Z,6.80
2019-04-04T08:37:13.545Z,6.82
2019-04-04T08:42:14.598Z,6.91
2019-04-04T08:47:13.968Z,7.01
2019-04-04T08:52:17.225Z,7.04
2019-04-04T08:57:14.009Z,7.06
2019-04-04T09:02:13.638Z,7.05
2019-04-04T09:07:12.808Z,7.06
2019-04-04T09:12:12.586Z,7.06
2019-04-04T09:17:12.594Z,7.08
2019-04-04T09:22:12.588Z,7.11
2019-04-04T09:27:11.599Z,7.15
2019-04-04T09:32:12.764Z,7.16
2019-04-04T09:37:11.585Z,7.15
2019-04-04T09:42:10.928Z,7.17
2019-04-04T09:47:10.638Z,7.16
2019-04-04T09:57:10.649Z,7.02
2019-04-04T10:02:10.582Z,7.02
2019-04-04T10:07:09.966Z,7.10
2019-04-04T10:12:09.707Z,7.22
2019-04-04T10:17:09.587Z,7.21
2019-04-04T10:22:09.621Z,7.22
2019-04-04T10:27:10.688Z,7.28
2019-04-04T10:32:09.695Z,7.29
2019-04-04T10:37:09.758Z,7.23
2019-04-04T10:42:08.667Z,7.19
2019-04-04T10:47:07.831Z,7.19
2019-04-04T10:52:07.609Z,7.28
2019-04-04T10:57:06.715Z,7.34
2019-04-04T11:02:05.922Z,7.45
2019-04-04T11:07:04.692Z,7.43
2019-04-04T11:12:05.602Z,7.34
2019-04-04T11:17:04.914Z,7.22
2019-04-04T11:22:04.739Z,7.09
2019-04-04T11:27:04.686Z,6.96
2019-04-04T11:32:03.605Z,6.86
2019-04-04T11:37:03.714Z,6.80
2019-04-04T11:42:04.347Z,6.79
2019-04-04T11:47:02.848Z,6.86
2019-04-04T11:57:01.633Z,6.96
2019-04-04T12:02:01.810Z,7.04
2019-04-04T12:07:00.631Z,7.10
2019-04-04T12:12:00.673Z,7.18
2019-04-04T12:16:59.656Z,7.26
2019-04-04T12:21:58.847Z,7.22
2019-04-04T12:26:59.808Z,7.25
2019-04-04T12:31:58.952Z,7.31
2019-04-04T12:36:58.707Z,7.30
2019-04-04T12:41:58.731Z,7.31
2019-04-04T12:46:59.608Z,7.34
2019-04-04T12:52:00.612Z,7.42
2019-04-04T12:56:59.805Z,7.65
2019-04-04T13:01:58.761Z,7.94
2019-04-04T13:06:57.746Z,7.94
2019-04-04T13:11:56.858Z,7.84
2019-04-04T13:16:55.724Z,7.78
2019-04-04T13:21:55.118Z,7.75
2019-04-04T13:26:55.664Z,7.58
2019-04-04T13:31:55.669Z,7.42
2019-04-04T13:36:55.712Z,7.32
2019-04-04T13:41:54.589Z,7.29
2019-04-04T13:46:55.652Z,7.24
2019-04-04T13:51:54.726Z,7.27
2019-04-04T13:56:55.823Z,7.32
2019-04-04T14:01:54.537Z,7.33
2019-04-04T14:06:54.648Z,7.28
2019-04-04T14:11:54.693Z,7.31
2019-04-04T14:16:55.657Z,7.33
2019-04-04T14:21:55.688Z,7.39
2019-04-04T14:26:54.684Z,7.39
2019-04-04T14:31:54.699Z,7.43
2019-04-04T14:36:54.669Z,7.50
2019-04-04T14:41:54.057Z,7.58
2019-04-04T14:46:52.779Z,7.60
2019-04-04T14:51:52.614Z,7.67
2019-04-04T14:56:52.648Z,7.66
2019-04-04T15:01:51.800Z,7.56
2019-04-04T15:06:51.139Z,7.55
2019-04-04T15:11:51.791Z,7.46
2019-04-04T15:16:51.843Z,7.42
2019-04-04T15:21:50.689Z,7.36
2019-04-04T15:26:51.015Z,7.35
2019-04-04T15:31:50.676Z,7.34
2019-04-04T15:36:49.615Z,7.34
2019-04-04T15:41:48.669Z,7.36
2019-04-04T15:46:48.833Z,7.34
2019-04-04T15:51:47.903Z,7.31
2019-04-04T15:56:47.650Z,7.25
2019-04-04T16:01:46.649Z,7.21
2019-04-04T16:06:46.736Z,7.20
2019-04-04T16:11:49.745Z,7.20
2019-04-04T16:16:45.767Z,7.20
2019-04-04T16:26:44.775Z,7.17
2019-04-04T16:31:45.669Z,7.13
2019-04-04T16:36:46.102Z,7.13
2019-04-04T16:41:44.933Z,7.20
2019-04-04T16:46:44.058Z,7.18
2019-04-04T16:51:43.842Z,7.21
2019-04-04T16:56:43.696Z,7.19
2019-04-04T17:01:42.737Z,7.24
2019-04-04T17:06:41.796Z,7.26
2019-04-04T17:11:42.772Z,7.24
2019-04-04T17:16:42.714Z,7.19
2019-04-04T17:21:43.783Z,7.17
2019-04-04T17:26:43.783Z,7.08
2019-04-04T17:31:43.758Z,7.04
2019-04-04T17:36:42.860Z,6.95
2019-04-04T17:46:42.874Z,6.83
2019-04-04T17:51:42.149Z,6.76
2019-04-04T17:56:43.285Z,6.73
2019-04-04T18:01:42.801Z,6.68
2019-04-04T18:06:41.990Z,6.66
2019-04-04T18:11:41.739Z,6.62
2019-04-04T18:16:42.802Z,6.63
2019-04-04T18:21:42.861Z,6.58
2019-04-04T18:26:42.003Z,6.54
2019-04-04T18:31:41.698Z,6.51
2019-04-04T18:36:42.695Z,6.53
2019-04-04T18:41:41.742Z,6.54
2019-04-04T18:46:41.767Z,6.52
2019-04-04T18:51:41.780Z,6.47
2019-04-04T18:56:41.859Z,6.47
2019-04-04T19:01:40.791Z,6.43
2019-04-04T19:06:40.940Z,6.42
2019-04-04T19:11:40.841Z,6.36
2019-04-04T19:16:40.839Z,6.34
2019-04-04T19:21:40.753Z,6.32
2019-04-04T19:31:39.155Z,6.27
2019-04-04T19:36:38.137Z,6.27
2019-04-04T19:41:36.819Z,6.24
2019-04-04T19:46:37.304Z,6.20
2019-04-04T19:51:35.163Z,6.19
2019-04-04T19:56:34.754Z,6.15
2019-04-04T20:01:34.768Z,6.12
2019-04-04T20:06:35.007Z,6.09
2019-04-04T20:11:33.729Z,6.11
2019-04-04T20:16:32.704Z,6.13
2019-04-04T20:21:32.751Z,6.11
2019-04-04T20:26:32.754Z,6.01
2019-04-04T20:31:32.747Z,5.96
2019-04-04T20:36:32.028Z,5.98
2019-04-04T20:41:31.767Z,5.91
2019-04-04T20:46:31.769Z,5.81
2019-04-04T20:51:30.789Z,5.74
2019-04-04T20:56:30.006Z,5.68
2019-04-04T21:01:29.813Z,5.63
2019-04-04T21:06:28.760Z,5.65
2019-04-04T21:11:27.827Z,5.66
2019-04-04T21:16:27.789Z,5.65
2019-04-04T21:21:26.811Z,5.65
2019-04-04T21:26:26.144Z,5.65
2019-04-04T21:31:25.766Z,5.63
2019-04-04T21:36:25.770Z,5.63
2019-04-04T21:41:25.021Z,5.62
2019-04-04T21:46:25.754Z,5.59
2019-04-04T21:51:25.791Z,5.58
2019-04-04T21:56:25.865Z,5.64
2019-04-04T22:01:25.852Z,5.61
2019-04-04T22:06:24.737Z,5.57
2019-04-04T22:11:24.102Z,5.56
2019-04-04T22:16:23.788Z,5.55
2019-04-04T22:21:24.839Z,5.52
2019-04-04T22:26:23.791Z,5.55
2019-04-04T22:31:23.956Z,5.56
2019-04-04T22:36:23.729Z,5.57
2019-04-04T22:41:22.890Z,5.59
2019-04-04T22:46:21.756Z,5.55
2019-04-04T22:51:21.803Z,5.53
2019-04-04T22:56:21.001Z,5.52
2019-04-04T23:01:22.023Z,5.49
2019-04-04T23:06:22.806Z,5.50
2019-04-04T23:11:23.863Z,5.52
2019-04-04T23:16:23.882Z,5.52
2019-04-04T23:21:23.388Z,5.51
2019-04-04T23:26:22.818Z,5.52
2019-04-04T23:31:23.808Z,5.51
2019-04-04T23:36:34.300Z,5.51
2019-04-04T23:41:23.833Z,5.51
2019-04-04T23:46:22.824Z,5.50
2019-04-04T23:51:22.806Z,5.50
2019-04-04T23:56:22.884Z,5.50
